sensor_id;sensor_type;location;lat;lon;timestamp;temperature;humidity
63899;HTU21D;50070;-32.946;-60.652;2023-02-11T03:17:18;33.57;30.61
63899;HTU21D;50070;-32.946;-60.652;2023-02-11T03:19:48;33.59;30.66
63899;HTU21D;50070;-32.946;-60.652;2023-02-11T03:22:26;33.49;30.77
63899;HTU21D;50070;-32.946;-60.652;2023-02-11T03:24:55;33.41;30.94
63899;HTU21D;50070;-32.946;-60.652;2023-02-11T03:27:45;33.43;30.99
63899;HTU21D;50070;-32.946;-60.652;2023-02-11T03:30:19;33.21;30.95
63899;HTU21D;50070;-32.946;-60.652;2023-02-11T03:33:04;33.27;31.12
63899;HTU21D;50070;-32.946;-60.652;2023-02-11T03:35:59;33.31;30.98
63899;HTU21D;50070;-32.946;-60.652;2023-02-11T03:38:33;33.22;31.03
63899;HTU21D;50070;-32.946;-60.652;2023-02-11T03:41:03;33.22;30.67
63899;HTU21D;50070;-32.946;-60.652;2023-02-11T03:43:39;33.23;30.58
63899;HTU21D;50070;-32.946;-60.652;2023-02-11T03:46:09;33.14;30.87
63899;HTU21D;50070;-32.946;-60.652;2023-02-11T03:48:43;33.08;30.90
63899;HTU21D;50070;-32.946;-60.652;2023-02-11T03:51:22;32.99;31.10
63899;HTU21D;50070;-32.946;-60.652;2023-02-11T03:53:53;33.07;30.90
63899;HTU21D;50070;-32.946;-60.652;2023-02-11T03:56:23;33.09;30.97
63899;HTU21D;50070;-32.946;-60.652;2023-02-11T03:58:52;33.01;31.15
63899;HTU21D;50070;-32.946;-60.652;2023-02-11T04:01:19;32.85;31.51
63899;HTU21D;50070;-32.946;-60.652;2023-02-11T04:03:46;32.94;31.43
63899;HTU21D;50070;-32.946;-60.652;2023-02-11T04:06:13;32.67;31.75
63899;HTU21D;50070;-32.946;-60.652;2023-02-11T04:08:40;32.69;31.53
63899;HTU21D;50070;-32.946;-60.652;2023-02-11T04:11:07;32.60;32.03
63899;HTU21D;50070;-32.946;-60.652;2023-02-11T04:13:33;32.57;32.22
63899;HTU21D;50070;-32.946;-60.652;2023-02-11T20:07:50;37.76;23.73
63899;HTU21D;50070;-32.946;-60.652;2023-02-11T20:10:18;37.73;23.48
63899;HTU21D;50070;-32.946;-60.652;2023-02-11T20:12:54;37.49;24.46
63899;HTU21D;50070;-32.946;-60.652;2023-02-11T20:15:21;37.46;25.04
63899;HTU21D;50070;-32.946;-60.652;2023-02-11T20:17:48;37.55;25.08
63899;HTU21D;50070;-32.946;-60.652;2023-02-11T20:20:15;37.59;24.83
63899;HTU21D;50070;-32.946;-60.652;2023-02-11T20:22:43;37.74;24.27
63899;HTU21D;50070;-32.946;-60.652;2023-02-11T20:25:10;37.77;24.73
63899;HTU21D;50070;-32.946;-60.652;2023-02-11T20:27:37;37.86;24.60
63899;HTU21D;50070;-32.946;-60.652;2023-02-11T20:30:04;37.88;25.08
63899;HTU21D;50070;-32.946;-60.652;2023-02-11T20:32:46;37.69;25.13
63899;HTU21D;50070;-32.946;-60.652;2023-02-11T20:35:14;37.60;25.94
63899;HTU21D;50070;-32.946;-60.652;2023-02-11T20:37:41;37.75;25.93
63899;HTU21D;50070;-32.946;-60.652;2023-02-11T20:40:10;37.66;25.59
63899;HTU21D;50070;-32.946;-60.652;2023-02-11T20:42:38;37.63;25.05
63899;HTU21D;50070;-32.946;-60.652;2023-02-11T20:45:05;37.47;25.81
63899;HTU21D;50070;-32.946;-60.652;2023-02-11T20:47:32;37.49;25.65
63899;HTU21D;50070;-32.946;-60.652;2023-02-11T20:49:59;37.43;25.99
63899;HTU21D;50070;-32.946;-60.652;2023-02-11T20:52:25;37.55;26.23
63899;HTU21D;50070;-32.946;-60.652;2023-02-11T20:54:53;37.57;25.69
63899;HTU21D;50070;-32.946;-60.652;2023-02-11T20:57:20;37.43;26.62
63899;HTU21D;50070;-32.946;-60.652;2023-02-11T20:59:47;37.46;26.46
63899;HTU21D;50070;-32.946;-60.652;2023-02-11T21:02:14;37.37;26.61
63899;HTU21D;50070;-32.946;-60.652;2023-02-11T21:04:40;37.37;26.14
63899;HTU21D;50070;-32.946;-60.652;2023-02-11T21:07:12;37.38;25.89
